sensor_id;sensor_type;location;lat;lon;timestamp;temperature;humidity
71672;DHT22;67659;45.554;11.812;2024-03-08T08:34:19;9.90;99.90
71672;DHT22;67659;45.554;11.812;2024-03-08T08:36:47;9.90;99.90
71672;DHT22;67659;45.554;11.812;2024-03-08T08:39:13;9.70;99.90
71672;DHT22;67659;45.554;11.812;2024-03-08T08:41:39;9.70;99.90
71672;DHT22;67659;45.554;11.812;2024-03-08T08:44:07;9.80;99.90
71672;DHT22;67659;45.554;11.812;2024-03-08T08:46:36;9.90;99.90
71672;DHT22;67659;45.554;11.812;2024-03-08T08:49:04;9.90;99.90
71672;DHT22;67659;45.554;11.812;2024-03-08T08:51:30;10.00;99.90
71672;DHT22;67659;45.554;11.812;2024-03-08T08:53:59;10.00;99.90
71672;DHT22;67659;45.554;11.812;2024-03-08T08:56:25;9.90;99.90
71672;DHT22;67659;45.554;11.812;2024-03-08T08:58:52;9.90;99.90
71672;DHT22;67659;45.554;11.812;2024-03-08T09:01:19;9.80;99.90
71672;DHT22;67659;45.554;11.812;2024-03-08T09:03:45;9.70;99.90
71672;DHT22;67659;45.554;11.812;2024-03-08T09:06:16;9.80;99.90
71672;DHT22;67659;45.554;11.812;2024-03-08T09:08:42;9.80;99.90
71672;DHT22;67659;45.554;11.812;2024-03-08T09:11:10;9.90;99.90
71672;DHT22;67659;45.554;11.812;2024-03-08T09:13:36;9.80;99.90
71672;DHT22;67659;45.554;11.812;2024-03-08T09:16:05;9.80;99.90
71672;DHT22;67659;45.554;11.812;2024-03-08T09:18:32;9.70;99.90
71672;DHT22;67659;45.554;11.812;2024-03-08T09:20:58;9.70;99.90
71672;DHT22;67659;45.554;11.812;2024-03-08T09:23:26;9.70;99.90
71672;DHT22;67659;45.554;11.812;2024-03-08T09:26:13;9.70;99.90
71672;DHT22;67659;45.554;11.812;2024-03-08T09:28:41;9.80;99.90
71672;DHT22;67659;45.554;11.812;2024-03-08T09:31:11;9.60;99.90
71672;DHT22;67659;45.554;11.812;2024-03-08T09:33:38;9.70;99.90
71672;DHT22;67659;45.554;11.812;2024-03-08T09:36:11;9.70;99.90
71672;DHT22;67659;45.554;11.812;2024-03-08T09:38:39;9.70;99.90
71672;DHT22;67659;45.554;11.812;2024-03-08T09:41:06;9.70;99.90
71672;DHT22;67659;45.554;11.812;2024-03-08T09:43:36;9.70;99.90
71672;DHT22;67659;45.554;11.812;2024-03-08T09:46:04;9.70;99.90
71672;DHT22;67659;45.554;11.812;2024-03-08T09:48:39;9.70;99.90
71672;DHT22;67659;45.554;11.812;2024-03-08T09:51:08;9.70;99.90
71672;DHT22;67659;45.554;11.812;2024-03-08T09:53:45;9.80;99.90
71672;DHT22;67659;45.554;11.812;2024-03-08T09:56:21;9.80;99.90
71672;DHT22;67659;45.554;11.812;2024-03-08T09:58:49;9.90;99.90
71672;DHT22;67659;45.554;11.812;2024-03-08T10:01:39;9.90;99.90
71672;DHT22;67659;45.554;11.812;2024-03-08T10:04:11;9.90;99.90
71672;DHT22;67659;45.554;11.812;2024-03-08T10:06:41;10.00;99.90
71672;DHT22;67659;45.554;11.812;2024-03-08T10:09:10;10.10;99.90
71672;DHT22;67659;45.554;11.812;2024-03-08T10:11:39;10.10;99.90
71672;DHT22;67659;45.554;11.812;2024-03-08T10:14:10;10.10;99.90
71672;DHT22;67659;45.554;11.812;2024-03-08T10:16:46;10.20;99.90
71672;DHT22;67659;45.554;11.812;2024-03-08T10:19:13;10.10;99.90
71672;DHT22;67659;45.554;11.812;2024-03-08T10:22:00;10.10;99.90
71672;DHT22;67659;45.554;11.812;2024-03-08T10:24:31;10.00;99.90
71672;DHT22;67659;45.554;11.812;2024-03-08T10:27:01;10.20;99.90
71672;DHT22;67659;45.554;11.812;2024-03-08T10:29:32;10.30;99.90
71672;DHT22;67659;45.554;11.812;2024-03-08T10:31:59;10.50;99.90
71672;DHT22;67659;45.554;11.812;2024-03-08T10:34:27;10.50;99.90
71672;DHT22;67659;45.554;11.812;2024-03-08T10:37:02;10.70;99.90
71672;DHT22;67659;45.554;11.812;2024-03-08T10:39:36;10.80;99.90
71672;DHT22;67659;45.554;11.812;2024-03-08T10:42:04;10.90;99.90
71672;DHT22;67659;45.554;11.812;2024-03-08T10:49:41;10.90;99.90
71672;DHT22;67659;45.554;11.812;2024-03-08T10:52:11;10.90;99.90
71672;DHT22;67659;45.554;11.812;2024-03-08T10:54:39;10.50;99.90
71672;DHT22;67659;45.554;11.812;2024-03-08T10:57:06;10.50;99.90
71672;DHT22;67659;45.554;11.812;2024-03-08T10:59:34;10.50;99.90
71672;DHT22;67659;45.554;11.812;2024-03-08T11:02:01;10.40;99.90
71672;DHT22;67659;45.554;11.812;2024-03-08T11:04:27;10.30;99.90
71672;DHT22;67659;45.554;11.812;2024-03-08T11:07:00;10.20;99.90
71672;DHT22;67659;45.554;11.812;2024-03-08T11:09:35;10.10;99.90
71672;DHT22;67659;45.554;11.812;2024-03-08T11:12:27;10.10;99.90
71672;DHT22;67659;45.554;11.812;2024-03-08T11:15:03;9.90;99.90
71672;DHT22;67659;45.554;11.812;2024-03-08T11:20:16;10.00;99.90
71672;DHT22;67659;45.554;11.812;2024-03-08T11:22:50;9.90;99.90
71672;DHT22;67659;45.554;11.812;2024-03-08T11:25:40;9.90;99.90
71672;DHT22;67659;45.554;11.812;2024-03-08T11:30:44;9.80;99.90
71672;DHT22;67659;45.554;11.812;2024-03-08T11:33:13;9.80;99.90
71672;DHT22;67659;45.554;11.812;2024-03-08T11:35:42;9.80;99.90
71672;DHT22;67659;45.554;11.812;2024-03-08T11:38:08;9.80;99.90
71672;DHT22;67659;45.554;11.812;2024-03-08T11:40:35;9.80;99.90
71672;DHT22;67659;45.554;11.812;2024-03-08T11:43:01;9.80;99.90
71672;DHT22;67659;45.554;11.812;2024-03-08T11:45:29;9.70;99.90
71672;DHT22;67659;45.554;11.812;2024-03-08T11:48:05;9.70;99.90
71672;DHT22;67659;45.554;11.812;2024-03-08T11:50:33;9.60;99.90
71672;DHT22;67659;45.554;11.812;2024-03-08T11:53:03;9.70;99.90
71672;DHT22;67659;45.554;11.812;2024-03-08T11:55:39;9.70;99.90
71672;DHT22;67659;45.554;11.812;2024-03-08T11:58:05;9.70;99.90
71672;DHT22;67659;45.554;11.812;2024-03-08T12:00:33;9.70;99.90
71672;DHT22;67659;45.554;11.812;2024-03-08T12:03:07;9.80;99.90
71672;DHT22;67659;45.554;11.812;2024-03-08T12:05:33;9.80;99.90
71672;DHT22;67659;45.554;11.812;2024-03-08T12:08:01;9.70;99.90
71672;DHT22;67659;45.554;11.812;2024-03-08T12:10:28;9.70;99.90
71672;DHT22;67659;45.554;11.812;2024-03-08T12:12:56;9.80;99.90
71672;DHT22;67659;45.554;11.812;2024-03-08T12:15:25;9.80;99.90
71672;DHT22;67659;45.554;11.812;2024-03-08T12:17:52;9.90;99.90
71672;DHT22;67659;45.554;11.812;2024-03-08T12:20:21;9.90;99.90
71672;DHT22;67659;45.554;11.812;2024-03-08T12:22:49;9.90;99.90
71672;DHT22;67659;45.554;11.812;2024-03-08T12:25:18;10.00;99.90
71672;DHT22;67659;45.554;11.812;2024-03-08T12:27:44;10.00;99.90
71672;DHT22;67659;45.554;11.812;2024-03-08T12:30:21;10.10;99.90
71672;DHT22;67659;45.554;11.812;2024-03-08T12:32:52;10.10;99.90
71672;DHT22;67659;45.554;11.812;2024-03-08T12:35:26;10.10;99.90
71672;DHT22;67659;45.554;11.812;2024-03-08T12:37:58;10.30;99.90
71672;DHT22;67659;45.554;11.812;2024-03-08T12:40:29;10.20;99.90
71672;DHT22;67659;45.554;11.812;2024-03-08T12:43:00;10.10;99.90
71672;DHT22;67659;45.554;11.812;2024-03-08T12:45:26;10.20;99.90
71672;DHT22;67659;45.554;11.812;2024-03-08T12:47:53;10.20;99.90
71672;DHT22;67659;45.554;11.812;2024-03-08T12:50:20;10.10;99.90
71672;DHT22;67659;45.554;11.812;2024-03-08T12:52:47;10.00;99.90
71672;DHT22;67659;45.554;11.812;2024-03-08T12:55:14;10.10;99.90
71672;DHT22;67659;45.554;11.812;2024-03-08T12:57:42;10.00;99.90
71672;DHT22;67659;45.554;11.812;2024-03-08T13:00:08;10.00;99.90
71672;DHT22;67659;45.554;11.812;2024-03-08T13:02:48;10.00;99.90
71672;DHT22;67659;45.554;11.812;2024-03-08T13:05:16;10.10;99.90
71672;DHT22;67659;45.554;11.812;2024-03-08T13:07:49;10.10;99.90
71672;DHT22;67659;45.554;11.812;2024-03-08T13:10:15;10.10;99.90
71672;DHT22;67659;45.554;11.812;2024-03-08T13:12:42;10.10;99.90
71672;DHT22;67659;45.554;11.812;2024-03-08T13:15:09;10.10;99.90
71672;DHT22;67659;45.554;11.812;2024-03-08T13:17:49;10.10;99.90
71672;DHT22;67659;45.554;11.812;2024-03-08T13:20:15;10.10;99.90
71672;DHT22;67659;45.554;11.812;2024-03-08T13:22:48;10.00;99.90
71672;DHT22;67659;45.554;11.812;2024-03-08T13:25:25;10.00;99.90
71672;DHT22;67659;45.554;11.812;2024-03-08T13:27:52;10.30;99.90
71672;DHT22;67659;45.554;11.812;2024-03-08T13:30:21;10.10;99.90
71672;DHT22;67659;45.554;11.812;2024-03-08T13:32:52;10.20;99.90
71672;DHT22;67659;45.554;11.812;2024-03-08T13:35:19;10.20;99.90
71672;DHT22;67659;45.554;11.812;2024-03-08T13:37:51;10.20;99.90
71672;DHT22;67659;45.554;11.812;2024-03-08T13:40:17;10.10;99.90
71672;DHT22;67659;45.554;11.812;2024-03-08T13:42:47;10.10;99.90
71672;DHT22;67659;45.554;11.812;2024-03-08T13:45:14;10.10;99.90
71672;DHT22;67659;45.554;11.812;2024-03-08T13:47:43;10.10;99.90
71672;DHT22;67659;45.554;11.812;2024-03-08T13:50:11;9.90;99.90
71672;DHT22;67659;45.554;11.812;2024-03-08T13:52:47;10.00;99.90
71672;DHT22;67659;45.554;11.812;2024-03-08T13:55:14;10.10;99.90
71672;DHT22;67659;45.554;11.812;2024-03-08T13:57:40;10.00;99.90
71672;DHT22;67659;45.554;11.812;2024-03-08T14:00:07;10.00;99.90
71672;DHT22;67659;45.554;11.812;2024-03-08T14:02:33;10.00;99.90
71672;DHT22;67659;45.554;11.812;2024-03-08T14:04:59;10.00;99.90
71672;DHT22;67659;45.554;11.812;2024-03-08T14:07:27;10.20;99.90
71672;DHT22;67659;45.554;11.812;2024-03-08T14:09:54;10.10;99.90
71672;DHT22;67659;45.554;11.812;2024-03-08T14:12:20;10.00;99.90
71672;DHT22;67659;45.554;11.812;2024-03-08T14:14:46;10.00;99.90
71672;DHT22;67659;45.554;11.812;2024-03-08T14:17:11;10.00;99.90
71672;DHT22;67659;45.554;11.812;2024-03-08T14:19:42;10.00;99.90
71672;DHT22;67659;45.554;11.812;2024-03-08T14:22:08;10.10;99.90
71672;DHT22;67659;45.554;11.812;2024-03-08T14:24:37;10.20;99.90
71672;DHT22;67659;45.554;11.812;2024-03-08T14:27:05;10.10;99.90
71672;DHT22;67659;45.554;11.812;2024-03-08T14:29:34;10.20;99.90
71672;DHT22;67659;45.554;11.812;2024-03-08T14:32:00;10.20;99.90
71672;DHT22;67659;45.554;11.812;2024-03-08T14:34:26;10.20;99.90
71672;DHT22;67659;45.554;11.812;2024-03-08T14:36:56;10.20;99.90
71672;DHT22;67659;45.554;11.812;2024-03-08T14:39:22;10.20;99.90
71672;DHT22;67659;45.554;11.812;2024-03-08T14:41:52;10.10;99.90
71672;DHT22;67659;45.554;11.812;2024-03-08T14:44:21;10.20;99.90
71672;DHT22;67659;45.554;11.812;2024-03-08T14:46:47;10.00;99.90
71672;DHT22;67659;45.554;11.812;2024-03-08T14:49:14;10.00;99.90
71672;DHT22;67659;45.554;11.812;2024-03-08T14:51:39;10.00;99.90
71672;DHT22;67659;45.554;11.812;2024-03-08T14:54:06;9.90;99.90
71672;DHT22;67659;45.554;11.812;2024-03-08T14:56:33;10.00;99.90
71672;DHT22;67659;45.554;11.812;2024-03-08T14:59:00;10.00;99.90
71672;DHT22;67659;45.554;11.812;2024-03-08T15:01:26;10.00;99.90
71672;DHT22;67659;45.554;11.812;2024-03-08T15:03:55;10.10;99.90
71672;DHT22;67659;45.554;11.812;2024-03-08T15:06:21;10.10;99.90
71672;DHT22;67659;45.554;11.812;2024-03-08T15:08:48;10.10;99.90
71672;DHT22;67659;45.554;11.812;2024-03-08T15:11:14;10.20;99.90
71672;DHT22;67659;45.554;11.812;2024-03-08T15:13:51;10.20;99.90
71672;DHT22;67659;45.554;11.812;2024-03-08T15:16:19;10.10;99.90
71672;DHT22;67659;45.554;11.812;2024-03-08T15:18:46;10.20;99.90
71672;DHT22;67659;45.554;11.812;2024-03-08T15:21:13;10.10;99.90
71672;DHT22;67659;45.554;11.812;2024-03-08T15:23:45;10.00;99.90
71672;DHT22;67659;45.554;11.812;2024-03-08T15:26:16;10.00;99.90
71672;DHT22;67659;45.554;11.812;2024-03-08T15:28:43;10.00;99.90
71672;DHT22;67659;45.554;11.812;2024-03-08T15:31:10;9.80;99.90
71672;DHT22;67659;45.554;11.812;2024-03-08T15:33:38;9.80;99.90
71672;DHT22;67659;45.554;11.812;2024-03-08T15:36:14;9.70;99.90
71672;DHT22;67659;45.554;11.812;2024-03-08T15:38:41;9.80;99.90
71672;DHT22;67659;45.554;11.812;2024-03-08T15:41:09;9.90;99.90
71672;DHT22;67659;45.554;11.812;2024-03-08T15:43:36;9.70;99.90
71672;DHT22;67659;45.554;11.812;2024-03-08T15:46:03;9.80;99.90
71672;DHT22;67659;45.554;11.812;2024-03-08T15:48:32;9.80;99.90
71672;DHT22;67659;45.554;11.812;2024-03-08T15:50:59;9.90;99.90
71672;DHT22;67659;45.554;11.812;2024-03-08T15:53:32;10.00;99.90
71672;DHT22;67659;45.554;11.812;2024-03-08T15:55:58;10.10;99.90
71672;DHT22;67659;45.554;11.812;2024-03-08T15:58:25;10.00;99.90
71672;DHT22;67659;45.554;11.812;2024-03-08T16:00:51;9.90;99.90
71672;DHT22;67659;45.554;11.812;2024-03-08T16:03:19;9.90;99.90
71672;DHT22;67659;45.554;11.812;2024-03-08T16:05:46;10.00;99.90
71672;DHT22;67659;45.554;11.812;2024-03-08T16:08:13;10.00;99.90
71672;DHT22;67659;45.554;11.812;2024-03-08T16:10:46;10.00;99.90
71672;DHT22;67659;45.554;11.812;2024-03-08T16:13:18;10.00;99.90
71672;DHT22;67659;45.554;11.812;2024-03-08T16:15:44;10.00;99.90
71672;DHT22;67659;45.554;11.812;2024-03-08T16:18:12;9.90;99.90
71672;DHT22;67659;45.554;11.812;2024-03-08T16:20:39;10.00;99.90
71672;DHT22;67659;45.554;11.812;2024-03-08T16:23:06;9.90;99.90
71672;DHT22;67659;45.554;11.812;2024-03-08T16:25:32;10.00;99.90
71672;DHT22;67659;45.554;11.812;2024-03-08T16:27:58;9.90;99.90
71672;DHT22;67659;45.554;11.812;2024-03-08T16:30:24;9.80;99.90
71672;DHT22;67659;45.554;11.812;2024-03-08T16:32:52;9.80;99.90
71672;DHT22;67659;45.554;11.812;2024-03-08T16:35:18;9.80;99.90
71672;DHT22;67659;45.554;11.812;2024-03-08T16:37:44;9.80;99.90
71672;DHT22;67659;45.554;11.812;2024-03-08T16:40:11;9.80;99.90
71672;DHT22;67659;45.554;11.812;2024-03-08T16:42:46;9.80;99.90
71672;DHT22;67659;45.554;11.812;2024-03-08T16:45:13;9.80;99.90
71672;DHT22;67659;45.554;11.812;2024-03-08T16:47:40;9.70;99.90
71672;DHT22;67659;45.554;11.812;2024-03-08T16:50:08;9.80;99.90
71672;DHT22;67659;45.554;11.812;2024-03-08T16:52:35;9.80;99.90
71672;DHT22;67659;45.554;11.812;2024-03-08T16:55:04;9.80;99.90
71672;DHT22;67659;45.554;11.812;2024-03-08T16:57:39;9.80;99.90
71672;DHT22;67659;45.554;11.812;2024-03-08T17:00:15;9.90;99.90
71672;DHT22;67659;45.554;11.812;2024-03-08T17:02:51;10.00;99.90
71672;DHT22;67659;45.554;11.812;2024-03-08T17:05:18;9.80;99.90
71672;DHT22;67659;45.554;11.812;2024-03-08T17:07:46;9.80;99.90
71672;DHT22;67659;45.554;11.812;2024-03-08T17:10:18;9.90;99.90
71672;DHT22;67659;45.554;11.812;2024-03-08T17:12:50;9.80;99.90
71672;DHT22;67659;45.554;11.812;2024-03-08T17:15:20;9.90;99.90
71672;DHT22;67659;45.554;11.812;2024-03-08T17:17:52;9.80;99.90
71672;DHT22;67659;45.554;11.812;2024-03-08T17:20:20;9.80;99.90
71672;DHT22;67659;45.554;11.812;2024-03-08T17:22:48;9.80;99.90
71672;DHT22;67659;45.554;11.812;2024-03-08T17:25:15;9.80;99.90
71672;DHT22;67659;45.554;11.812;2024-03-08T17:27:46;9.80;99.90
71672;DHT22;67659;45.554;11.812;2024-03-08T17:30:16;9.80;99.90
71672;DHT22;67659;45.554;11.812;2024-03-08T17:32:53;9.80;99.90
71672;DHT22;67659;45.554;11.812;2024-03-08T17:35:24;9.70;99.90
71672;DHT22;67659;45.554;11.812;2024-03-08T17:37:51;9.80;99.90
71672;DHT22;67659;45.554;11.812;2024-03-08T17:40:22;9.80;99.90
71672;DHT22;67659;45.554;11.812;2024-03-08T17:42:55;9.80;99.90
71672;DHT22;67659;45.554;11.812;2024-03-08T17:45:23;9.90;99.90
71672;DHT22;67659;45.554;11.812;2024-03-08T17:47:50;9.80;99.90
71672;DHT22;67659;45.554;11.812;2024-03-08T17:50:17;9.90;99.90
71672;DHT22;67659;45.554;11.812;2024-03-08T17:52:45;9.80;99.90
71672;DHT22;67659;45.554;11.812;2024-03-08T17:55:12;9.90;99.90
71672;DHT22;67659;45.554;11.812;2024-03-08T17:57:43;9.90;99.90
71672;DHT22;67659;45.554;11.812;2024-03-08T18:00:12;9.90;99.90
71672;DHT22;67659;45.554;11.812;2024-03-08T18:02:47;9.90;99.90
71672;DHT22;67659;45.554;11.812;2024-03-08T18:05:20;9.90;99.90
71672;DHT22;67659;45.554;11.812;2024-03-08T18:07:50;9.90;99.90
71672;DHT22;67659;45.554;11.812;2024-03-08T18:10:17;10.00;99.90
71672;DHT22;67659;45.554;11.812;2024-03-08T18:12:50;9.90;99.90
71672;DHT22;67659;45.554;11.812;2024-03-08T18:15:24;9.90;99.90
71672;DHT22;67659;45.554;11.812;2024-03-08T18:17:53;10.00;99.90
71672;DHT22;67659;45.554;11.812;2024-03-08T18:20:20;10.00;99.90
71672;DHT22;67659;45.554;11.812;2024-03-08T18:22:50;9.90;99.90
71672;DHT22;67659;45.554;11.812;2024-03-08T18:25:17;9.90;99.90
71672;DHT22;67659;45.554;11.812;2024-03-08T18:27:50;9.90;99.90
71672;DHT22;67659;45.554;11.812;2024-03-08T18:30:15;9.90;99.90
71672;DHT22;67659;45.554;11.812;2024-03-08T18:32:47;9.90;99.90
71672;DHT22;67659;45.554;11.812;2024-03-08T18:35:14;9.80;99.90
71672;DHT22;67659;45.554;11.812;2024-03-08T18:37:44;9.90;99.90
71672;DHT22;67659;45.554;11.812;2024-03-08T18:40:11;9.90;99.90
71672;DHT22;67659;45.554;11.812;2024-03-08T18:42:42;10.00;99.90
71672;DHT22;67659;45.554;11.812;2024-03-08T18:45:12;10.00;99.90
71672;DHT22;67659;45.554;11.812;2024-03-08T18:47:42;10.00;99.90
71672;DHT22;67659;45.554;11.812;2024-03-08T18:50:09;10.00;99.90
71672;DHT22;67659;45.554;11.812;2024-03-08T18:52:39;10.00;99.90
71672;DHT22;67659;45.554;11.812;2024-03-08T18:55:06;9.90;99.90
71672;DHT22;67659;45.554;11.812;2024-03-08T18:57:39;9.90;99.90
71672;DHT22;67659;45.554;11.812;2024-03-08T19:00:07;10.00;99.90
71672;DHT22;67659;45.554;11.812;2024-03-08T19:02:41;10.10;99.90
71672;DHT22;67659;45.554;11.812;2024-03-08T19:05:07;10.00;99.90
71672;DHT22;67659;45.554;11.812;2024-03-08T19:07:42;10.00;99.90
71672;DHT22;67659;45.554;11.812;2024-03-08T19:10:09;10.00;99.90
71672;DHT22;67659;45.554;11.812;2024-03-08T19:12:40;10.10;99.90
71672;DHT22;67659;45.554;11.812;2024-03-08T19:15:09;10.00;99.90
71672;DHT22;67659;45.554;11.812;2024-03-08T19:17:36;10.10;99.90
71672;DHT22;67659;45.554;11.812;2024-03-08T19:20:04;10.00;99.90
71672;DHT22;67659;45.554;11.812;2024-03-08T19:22:31;10.00;99.90
71672;DHT22;67659;45.554;11.812;2024-03-08T19:24:57;10.10;99.90
71672;DHT22;67659;45.554;11.812;2024-03-08T19:27:23;10.00;99.90
71672;DHT22;67659;45.554;11.812;2024-03-08T19:29:50;10.00;99.90
71672;DHT22;67659;45.554;11.812;2024-03-08T19:32:16;9.90;99.90
71672;DHT22;67659;45.554;11.812;2024-03-08T19:34:42;9.90;99.90
71672;DHT22;67659;45.554;11.812;2024-03-08T19:37:08;10.00;99.90
71672;DHT22;67659;45.554;11.812;2024-03-08T19:39:34;10.00;99.90
71672;DHT22;67659;45.554;11.812;2024-03-08T19:42:01;10.00;99.90
71672;DHT22;67659;45.554;11.812;2024-03-08T19:44:27;10.00;99.90
71672;DHT22;67659;45.554;11.812;2024-03-08T19:46:53;10.10;99.90
71672;DHT22;67659;45.554;11.812;2024-03-08T19:49:21;10.10;99.90
71672;DHT22;67659;45.554;11.812;2024-03-08T19:51:47;10.10;99.90
71672;DHT22;67659;45.554;11.812;2024-03-08T19:54:13;10.10;99.90
71672;DHT22;67659;45.554;11.812;2024-03-08T19:56:40;10.00;99.90
71672;DHT22;67659;45.554;11.812;2024-03-08T19:59:09;10.00;99.90
71672;DHT22;67659;45.554;11.812;2024-03-08T20:01:35;10.10;99.90
71672;DHT22;67659;45.554;11.812;2024-03-08T20:04:01;10.00;99.90
71672;DHT22;67659;45.554;11.812;2024-03-08T20:06:27;10.00;99.90
71672;DHT22;67659;45.554;11.812;2024-03-08T20:08:53;10.00;99.90
71672;DHT22;67659;45.554;11.812;2024-03-08T20:11:18;10.00;99.90
71672;DHT22;67659;45.554;11.812;2024-03-08T20:13:45;10.10;99.90
71672;DHT22;67659;45.554;11.812;2024-03-08T20:16:12;10.10;99.90
71672;DHT22;67659;45.554;11.812;2024-03-08T20:18:38;10.10;99.90
71672;DHT22;67659;45.554;11.812;2024-03-08T20:21:05;10.10;99.90
71672;DHT22;67659;45.554;11.812;2024-03-08T20:23:32;10.00;99.90
71672;DHT22;67659;45.554;11.812;2024-03-08T20:26:01;10.00;99.90
71672;DHT22;67659;45.554;11.812;2024-03-08T20:28:32;10.10;99.90
71672;DHT22;67659;45.554;11.812;2024-03-08T20:30:58;10.10;99.90
71672;DHT22;67659;45.554;11.812;2024-03-08T20:33:24;10.10;99.90
71672;DHT22;67659;45.554;11.812;2024-03-08T20:35:52;10.10;99.90
71672;DHT22;67659;45.554;11.812;2024-03-08T20:38:18;10.10;99.90
71672;DHT22;67659;45.554;11.812;2024-03-08T20:40:47;10.10;99.90
71672;DHT22;67659;45.554;11.812;2024-03-08T20:43:13;10.10;99.90
71672;DHT22;67659;45.554;11.812;2024-03-08T20:45:44;10.20;99.90
71672;DHT22;67659;45.554;11.812;2024-03-08T20:48:10;10.10;99.90
71672;DHT22;67659;45.554;11.812;2024-03-08T20:50:40;10.10;99.90
71672;DHT22;67659;45.554;11.812;2024-03-08T20:53:08;10.00;99.90
71672;DHT22;67659;45.554;11.812;2024-03-08T20:55:37;10.00;99.90
71672;DHT22;67659;45.554;11.812;2024-03-08T20:58:07;10.00;99.90
71672;DHT22;67659;45.554;11.812;2024-03-08T21:00:34;10.00;99.90
71672;DHT22;67659;45.554;11.812;2024-03-08T21:03:03;10.00;99.90
71672;DHT22;67659;45.554;11.812;2024-03-08T21:05:31;10.00;99.90
71672;DHT22;67659;45.554;11.812;2024-03-08T21:07:58;10.00;99.90
71672;DHT22;67659;45.554;11.812;2024-03-08T21:10:28;10.00;99.90
71672;DHT22;67659;45.554;11.812;2024-03-08T21:12:57;10.10;99.90
71672;DHT22;67659;45.554;11.812;2024-03-08T21:15:24;10.10;99.90
71672;DHT22;67659;45.554;11.812;2024-03-08T21:17:50;10.10;99.90
71672;DHT22;67659;45.554;11.812;2024-03-08T21:20:18;10.10;99.90
71672;DHT22;67659;45.554;11.812;2024-03-08T21:22:44;10.10;99.90
71672;DHT22;67659;45.554;11.812;2024-03-08T21:25:16;10.10;99.90
71672;DHT22;67659;45.554;11.812;2024-03-08T21:27:43;10.00;99.90
71672;DHT22;67659;45.554;11.812;2024-03-08T21:30:11;10.10;99.90
71672;DHT22;67659;45.554;11.812;2024-03-08T21:32:43;10.10;99.90
71672;DHT22;67659;45.554;11.812;2024-03-08T21:35:09;10.20;99.90
71672;DHT22;67659;45.554;11.812;2024-03-08T21:37:36;10.10;99.90
71672;DHT22;67659;45.554;11.812;2024-03-08T21:40:05;10.10;99.90
71672;DHT22;67659;45.554;11.812;2024-03-08T21:42:37;10.10;99.90
71672;DHT22;67659;45.554;11.812;2024-03-08T21:45:04;10.10;99.90
71672;DHT22;67659;45.554;11.812;2024-03-08T21:47:32;10.10;99.90
71672;DHT22;67659;45.554;11.812;2024-03-08T21:50:03;10.10;99.90
71672;DHT22;67659;45.554;11.812;2024-03-08T21:52:29;10.00;99.90
71672;DHT22;67659;45.554;11.812;2024-03-08T21:54:56;10.00;99.90
71672;DHT22;67659;45.554;11.812;2024-03-08T21:57:22;10.00;99.90
71672;DHT22;67659;45.554;11.812;2024-03-08T21:59:48;9.90;99.90
71672;DHT22;67659;45.554;11.812;2024-03-08T22:02:20;9.80;99.90
71672;DHT22;67659;45.554;11.812;2024-03-08T22:04:46;9.60;99.90
71672;DHT22;67659;45.554;11.812;2024-03-08T22:07:12;9.60;99.90
71672;DHT22;67659;45.554;11.812;2024-03-08T22:09:38;9.50;99.90
71672;DHT22;67659;45.554;11.812;2024-03-08T22:12:04;9.60;99.90
71672;DHT22;67659;45.554;11.812;2024-03-08T22:14:35;9.60;99.90
71672;DHT22;67659;45.554;11.812;2024-03-08T22:17:00;9.70;99.90
71672;DHT22;67659;45.554;11.812;2024-03-08T22:19:26;9.60;99.90
71672;DHT22;67659;45.554;11.812;2024-03-08T22:21:53;9.50;99.90
71672;DHT22;67659;45.554;11.812;2024-03-08T22:24:19;9.60;99.90
71672;DHT22;67659;45.554;11.812;2024-03-08T22:26:45;9.50;99.90
71672;DHT22;67659;45.554;11.812;2024-03-08T22:29:11;9.50;99.90
71672;DHT22;67659;45.554;11.812;2024-03-08T22:31:37;9.60;99.90
71672;DHT22;67659;45.554;11.812;2024-03-08T22:34:06;9.60;99.90
71672;DHT22;67659;45.554;11.812;2024-03-08T22:36:31;9.60;99.90
71672;DHT22;67659;45.554;11.812;2024-03-08T22:38:57;9.70;99.90
71672;DHT22;67659;45.554;11.812;2024-03-08T22:41:23;9.70;99.90
71672;DHT22;67659;45.554;11.812;2024-03-08T22:43:52;9.70;99.90
71672;DHT22;67659;45.554;11.812;2024-03-08T22:46:18;9.80;99.90
71672;DHT22;67659;45.554;11.812;2024-03-08T22:48:44;9.70;99.90
71672;DHT22;67659;45.554;11.812;2024-03-08T22:51:10;9.70;99.90
71672;DHT22;67659;45.554;11.812;2024-03-08T22:53:37;9.70;99.90
71672;DHT22;67659;45.554;11.812;2024-03-08T22:56:03;9.70;99.90
71672;DHT22;67659;45.554;11.812;2024-03-08T22:58:33;9.70;99.90
71672;DHT22;67659;45.554;11.812;2024-03-08T23:00:59;9.60;99.90
71672;DHT22;67659;45.554;11.812;2024-03-08T23:03:29;9.70;99.90
71672;DHT22;67659;45.554;11.812;2024-03-08T23:06:00;9.80;99.90
71672;DHT22;67659;45.554;11.812;2024-03-08T23:08:27;9.70;99.90
71672;DHT22;67659;45.554;11.812;2024-03-08T23:10:55;9.70;99.90
71672;DHT22;67659;45.554;11.812;2024-03-08T23:13:23;9.70;99.90
71672;DHT22;67659;45.554;11.812;2024-03-08T23:15:51;9.80;99.90
71672;DHT22;67659;45.554;11.812;2024-03-08T23:18:17;9.70;99.90
71672;DHT22;67659;45.554;11.812;2024-03-08T23:20:45;9.70;99.90
71672;DHT22;67659;45.554;11.812;2024-03-08T23:23:14;9.80;99.90
71672;DHT22;67659;45.554;11.812;2024-03-08T23:25:40;9.80;99.90
71672;DHT22;67659;45.554;11.812;2024-03-08T23:28:08;9.80;99.90
71672;DHT22;67659;45.554;11.812;2024-03-08T23:30:35;9.80;99.90
71672;DHT22;67659;45.554;11.812;2024-03-08T23:33:07;9.80;99.90
71672;DHT22;67659;45.554;11.812;2024-03-08T23:35:35;9.80;99.90
71672;DHT22;67659;45.554;11.812;2024-03-08T23:38:02;9.70;99.90
71672;DHT22;67659;45.554;11.812;2024-03-08T23:40:31;9.80;99.90
71672;DHT22;67659;45.554;11.812;2024-03-08T23:42:58;9.80;99.90
71672;DHT22;67659;45.554;11.812;2024-03-08T23:45:35;9.80;99.90
71672;DHT22;67659;45.554;11.812;2024-03-08T23:48:12;9.80;99.90
71672;DHT22;67659;45.554;11.812;2024-03-08T23:50:40;9.70;99.90
71672;DHT22;67659;45.554;11.812;2024-03-08T23:53:12;9.80;99.90
71672;DHT22;67659;45.554;11.812;2024-03-08T23:55:48;9.70;99.90
71672;DHT22;67659;45.554;11.812;2024-03-08T23:58:21;9.70;99.90
